KHS weather

Khasab Air Base
Khasab, Musandam Governorate, Oman

Public forecast

Using degrees Celsius for public forecast. Weather courtesy of forecast.io.

METAR (pilot weather report)

Closest report is Ras Al Khaimah International Airport, 37.2 nm (69.0 km) SSW. Retrieved 2019/04/18 22:00 UTC (23 minutes ago):

OMRK 182200Z VRB02KT CAVOK 22/14 Q1010 A2984

TAF (pilot weather forecast)

Forecast is more than 12 hours old.

Retrieved 2011/03/16 12:00 UTC (8 years ago):

TAF OOBR 161150Z 1612/1712 33015KT 8000 NSC= TAF OOKB 161115Z 1612/1712 36015KT 8000 NSC TEMPO 1615/1704 16008KT